createdAt,value
2023-06-19T00:02:00.980Z,19.00
2023-06-19T00:04:28.143Z,19.00
2023-06-19T00:06:55.280Z,19.00
2023-06-19T00:09:22.059Z,19.00
2023-06-19T00:11:48.890Z,19.00
2023-06-19T00:14:15.878Z,18.90
2023-06-19T00:16:42.725Z,18.90
2023-06-19T00:19:10.074Z,18.90
2023-06-19T00:21:36.880Z,18.90
2023-06-19T00:24:03.948Z,18.80
2023-06-19T00:26:30.780Z,18.80
2023-06-19T00:28:57.779Z,18.80
2023-06-19T00:31:24.965Z,18.70
2023-06-19T00:33:51.858Z,18.70
2023-06-19T00:36:22.352Z,18.70
2023-06-19T00:38:49.199Z,18.70
2023-06-19T00:41:19.184Z,18.60
2023-06-19T00:43:46.063Z,18.60
2023-06-19T00:46:12.963Z,18.60
2023-06-19T00:48:39.823Z,18.50
2023-06-19T00:51:06.619Z,18.50
2023-06-19T00:53:34.789Z,18.50
2023-06-19T00:56:01.552Z,18.40
2023-06-19T00:58:28.388Z,18.30
2023-06-19T01:01:07.475Z,18.30
2023-06-19T01:03:37.239Z,18.30
2023-06-19T01:06:05.477Z,18.30
2023-06-19T01:08:41.253Z,18.30
2023-06-19T01:11:21.788Z,18.30
2023-06-19T01:13:59.120Z,18.30
2023-06-19T01:16:26.709Z,18.40
2023-06-19T01:18:53.562Z,18.40
2023-06-19T01:21:20.462Z,18.40
2023-06-19T01:23:48.078Z,18.40
2023-06-19T01:26:16.232Z,18.50
2023-06-19T01:28:43.725Z,18.50
2023-06-19T01:31:22.028Z,18.50
2023-06-19T01:33:48.921Z,18.60
2023-06-19T01:36:15.904Z,18.60
2023-06-19T01:38:42.698Z,18.60
2023-06-19T01:41:09.489Z,18.60
2023-06-19T01:43:36.377Z,18.70
2023-06-19T01:46:03.480Z,18.70
2023-06-19T01:48:30.481Z,18.70
2023-06-19T01:50:57.250Z,18.70
2023-06-19T01:53:24.071Z,18.70
2023-06-19T01:55:50.830Z,18.80
2023-06-19T01:58:17.688Z,18.80
2023-06-19T02:00:44.655Z,18.80
2023-06-19T02:03:11.605Z,18.80
2023-06-19T02:05:40.834Z,18.80
2023-06-19T02:08:07.957Z,18.80
2023-06-19T02:10:34.847Z,18.80
2023-06-19T02:13:01.663Z,18.70
2023-06-19T02:15:28.440Z,18.80
2023-06-19T02:17:57.067Z,18.80
2023-06-19T02:20:25.809Z,18.80
2023-06-19T02:22:53.136Z,18.80
2023-06-19T02:25:20.140Z,18.90
2023-06-19T02:27:46.945Z,18.90
2023-06-19T02:30:13.970Z,18.90
2023-06-19T02:32:41.017Z,18.90
2023-06-19T02:35:10.098Z,18.90
2023-06-19T02:37:37.925Z,19.00
2023-06-19T02:40:06.229Z,19.00
2023-06-19T02:42:33.178Z,19.00
2023-06-19T02:45:04.290Z,19.00
2023-06-19T02:47:32.592Z,19.00
2023-06-19T02:50:00.315Z,19.00
2023-06-19T02:52:27.474Z,18.90
2023-06-19T02:54:54.321Z,18.90
2023-06-19T02:57:21.175Z,18.90
2023-06-19T02:59:48.193Z,18.80
2023-06-19T03:02:15.456Z,18.80
2023-06-19T03:04:42.675Z,18.80
2023-06-19T03:07:09.459Z,18.80
2023-06-19T03:09:36.216Z,18.90
2023-06-19T03:12:03.358Z,18.90
2023-06-19T03:14:30.176Z,18.80
2023-06-19T03:16:57.042Z,18.80
2023-06-19T03:19:23.898Z,18.80
2023-06-19T03:21:50.688Z,18.80
2023-06-19T03:24:17.469Z,18.70
2023-06-19T03:26:44.323Z,18.70
2023-06-19T03:29:11.122Z,18.60
2023-06-19T03:31:37.868Z,18.60
2023-06-19T03:34:04.595Z,18.50
2023-06-19T03:36:31.340Z,18.60
2023-06-19T03:38:58.094Z,18.60
2023-06-19T03:41:24.880Z,18.60
2023-06-19T03:43:51.709Z,18.70
2023-06-19T03:46:18.469Z,18.70
2023-06-19T03:48:45.355Z,18.70
2023-06-19T03:51:12.479Z,18.80
2023-06-19T03:53:39.221Z,18.80
2023-06-19T03:56:06.605Z,18.80
2023-06-19T03:58:33.362Z,18.80
2023-06-19T04:01:00.143Z,18.80
2023-06-19T04:03:27.026Z,18.80
2023-06-19T04:05:53.874Z,18.80
2023-06-19T04:08:20.678Z,18.80
2023-06-19T04:10:47.439Z,18.80
2023-06-19T04:13:14.216Z,18.80
2023-06-19T04:15:41.101Z,18.80
2023-06-19T04:18:08.009Z,18.80
2023-06-19T04:20:35.027Z,18.80
2023-06-19T04:23:01.959Z,18.90
2023-06-19T04:25:28.722Z,18.80
2023-06-19T04:27:55.471Z,18.90
2023-06-19T04:30:22.585Z,18.90
2023-06-19T04:32:49.851Z,18.90
2023-06-19T04:35:19.540Z,18.80
2023-06-19T04:37:46.449Z,18.80
2023-06-19T04:40:13.293Z,18.80
2023-06-19T04:42:40.085Z,18.80
2023-06-19T04:45:10.839Z,18.90
2023-06-19T04:47:51.440Z,19.00
2023-06-19T04:50:19.806Z,19.10
2023-06-19T04:52:46.619Z,19.20
2023-06-19T04:55:13.389Z,19.20
2023-06-19T04:57:40.322Z,19.30
2023-06-19T05:00:07.993Z,19.40
2023-06-19T05:02:35.127Z,19.40
2023-06-19T05:05:04.748Z,19.50
2023-06-19T05:07:34.501Z,19.60
2023-06-19T05:10:01.401Z,19.70
2023-06-19T05:12:28.175Z,19.80
2023-06-19T05:14:54.984Z,20.00
2023-06-19T05:17:21.956Z,20.10
2023-06-19T05:19:49.272Z,20.50
2023-06-19T05:22:16.093Z,20.80
2023-06-19T05:24:43.049Z,20.90
2023-06-19T05:27:10.038Z,21.00
2023-06-19T05:29:37.038Z,21.10
2023-06-19T05:32:04.177Z,21.20
2023-06-19T05:34:30.921Z,21.10
2023-06-19T05:36:59.488Z,21.00
2023-06-19T05:39:26.336Z,20.90
2023-06-19T05:41:53.116Z,20.90
2023-06-19T05:44:20.222Z,20.90
2023-06-19T05:46:47.111Z,20.80
2023-06-19T05:49:13.998Z,20.80
2023-06-19T05:51:40.834Z,20.80
2023-06-19T05:54:07.632Z,20.70
2023-06-19T05:56:34.546Z,20.70
2023-06-19T05:59:02.502Z,20.60
2023-06-19T06:01:30.275Z,20.60
2023-06-19T06:03:57.656Z,20.60
2023-06-19T06:06:24.689Z,20.50
2023-06-19T06:08:52.470Z,20.40
2023-06-19T06:11:19.679Z,20.40
2023-06-19T06:13:46.502Z,20.40
2023-06-19T06:16:13.401Z,20.50
2023-06-19T06:18:40.230Z,20.60
2023-06-19T06:21:07.006Z,20.60
2023-06-19T06:23:33.790Z,20.70
2023-06-19T06:26:03.641Z,20.80
2023-06-19T06:28:30.848Z,20.90
2023-06-19T06:30:57.614Z,21.00
2023-06-19T06:33:25.089Z,21.20
2023-06-19T06:35:52.863Z,21.30
2023-06-19T06:38:19.723Z,21.50
2023-06-19T06:40:47.113Z,21.80
2023-06-19T06:43:13.944Z,22.10
2023-06-19T06:45:43.030Z,22.50
2023-06-19T06:48:09.917Z,22.80
2023-06-19T06:50:36.788Z,23.00
2023-06-19T06:53:03.978Z,23.10
2023-06-19T06:55:30.803Z,23.30
2023-06-19T06:57:57.559Z,23.40
2023-06-19T07:00:24.559Z,23.70
2023-06-19T07:02:52.247Z,23.90
2023-06-19T07:05:19.134Z,24.00
2023-06-19T07:07:46.274Z,24.20
2023-06-19T07:10:13.661Z,24.40
2023-06-19T07:12:50.013Z,24.40
2023-06-19T07:15:16.883Z,24.40
2023-06-19T07:17:45.525Z,24.30
2023-06-19T07:20:12.633Z,24.10
2023-06-19T07:22:40.028Z,23.70
2023-06-19T07:25:07.127Z,23.50
2023-06-19T07:27:33.966Z,23.40
2023-06-19T07:30:00.768Z,23.40
2023-06-19T07:32:27.613Z,23.60
2023-06-19T07:34:54.732Z,23.90
2023-06-19T07:37:21.610Z,24.30
2023-06-19T07:39:51.538Z,24.60
2023-06-19T07:42:21.829Z,25.10
2023-06-19T07:44:48.709Z,25.60
2023-06-19T07:47:16.787Z,25.80
2023-06-19T07:49:43.568Z,26.10
2023-06-19T07:52:13.106Z,26.50
2023-06-19T07:54:53.369Z,26.80
2023-06-19T07:57:20.350Z,27.20
2023-06-19T07:59:48.313Z,27.50
2023-06-19T08:02:15.264Z,27.90
2023-06-19T08:04:42.206Z,28.60
2023-06-19T08:07:09.024Z,29.10
2023-06-19T08:09:35.839Z,29.70
2023-06-19T08:12:03.234Z,30.40
2023-06-19T08:14:29.982Z,31.10
2023-06-19T08:16:56.817Z,32.20
2023-06-19T08:19:23.713Z,32.20
2023-06-19T08:21:50.555Z,32.40
2023-06-19T08:24:17.386Z,32.40
2023-06-19T08:26:44.278Z,32.20
2023-06-19T08:29:11.089Z,31.90
2023-06-19T08:31:38.026Z,31.40
2023-06-19T08:34:09.047Z,30.90
2023-06-19T08:36:36.206Z,30.50
2023-06-19T08:39:03.616Z,30.00
2023-06-19T08:41:30.424Z,29.60
2023-06-19T08:43:57.229Z,29.20
2023-06-19T08:46:24.115Z,28.90
2023-06-19T08:48:50.868Z,28.60
2023-06-19T08:51:17.659Z,28.40
2023-06-19T08:53:57.659Z,28.10
2023-06-19T08:56:24.432Z,27.80
2023-06-19T08:58:51.222Z,27.60
2023-06-19T09:01:19.422Z,27.40
2023-06-19T09:03:47.766Z,27.30
2023-06-19T09:06:17.851Z,27.30
2023-06-19T09:08:44.951Z,27.30
2023-06-19T09:11:12.277Z,27.40
2023-06-19T09:13:39.041Z,27.60
2023-06-19T09:16:08.838Z,27.70
2023-06-19T09:18:47.187Z,27.80
2023-06-19T09:21:22.859Z,27.90
2023-06-19T09:23:50.973Z,27.90
2023-06-19T09:26:18.948Z,27.90
2023-06-19T09:28:46.121Z,27.80
2023-06-19T09:31:13.657Z,27.60
2023-06-19T09:33:40.884Z,27.50
2023-06-19T09:36:07.910Z,27.40
2023-06-19T09:38:37.403Z,27.50
2023-06-19T09:41:05.123Z,27.70
2023-06-19T09:43:34.927Z,27.90
2023-06-19T09:46:01.808Z,28.30
2023-06-19T09:48:33.638Z,28.70
2023-06-19T09:51:19.125Z,29.00
2023-06-19T09:53:46.515Z,29.30
2023-06-19T09:56:14.212Z,29.80
2023-06-19T09:58:41.552Z,30.30
2023-06-19T10:01:08.655Z,30.70
2023-06-19T10:03:36.198Z,31.10
2023-06-19T10:06:04.055Z,31.30
2023-06-19T10:08:42.843Z,31.60
2023-06-19T10:11:09.645Z,31.70
2023-06-19T10:13:39.801Z,31.80
2023-06-19T10:16:06.833Z,31.70
2023-06-19T10:18:34.344Z,31.60
2023-06-19T10:21:02.855Z,31.60
2023-06-19T10:23:30.119Z,31.60
2023-06-19T10:26:02.067Z,31.60
2023-06-19T10:28:32.506Z,31.60
2023-06-19T10:31:07.022Z,31.60
2023-06-19T10:33:35.097Z,31.40
2023-06-19T10:36:03.267Z,31.30
2023-06-19T10:38:30.461Z,31.20
2023-06-19T10:40:57.368Z,31.10
2023-06-19T10:43:33.004Z,31.00
2023-06-19T10:46:02.915Z,31.00
2023-06-19T10:48:29.723Z,31.10
2023-06-19T10:50:57.341Z,31.10
2023-06-19T10:53:33.934Z,31.20
2023-06-19T10:56:01.764Z,31.30
2023-06-19T10:58:29.100Z,31.30
2023-06-19T11:00:56.215Z,31.30
2023-06-19T11:03:23.178Z,31.40
2023-06-19T11:05:50.196Z,31.50
2023-06-19T11:08:20.875Z,31.50
2023-06-19T11:10:47.758Z,31.50
2023-06-19T11:13:15.764Z,31.50
2023-06-19T11:15:42.550Z,31.50
2023-06-19T11:18:09.432Z,31.60
2023-06-19T11:20:52.472Z,31.60
2023-06-19T11:23:29.660Z,31.60
2023-06-19T11:26:06.012Z,31.60
2023-06-19T11:28:32.879Z,31.60
2023-06-19T11:31:04.177Z,31.60
2023-06-19T11:33:31.601Z,31.60
2023-06-19T11:36:01.165Z,31.60
2023-06-19T11:38:28.114Z,31.60
2023-06-19T11:40:56.261Z,31.50
2023-06-19T11:43:26.595Z,31.30
2023-06-19T11:45:53.759Z,31.10
2023-06-19T11:48:26.802Z,31.00
2023-06-19T11:50:54.244Z,31.00
2023-06-19T11:53:21.764Z,31.10
2023-06-19T11:55:48.636Z,31.30
2023-06-19T11:58:16.441Z,31.50
2023-06-19T12:00:44.044Z,31.70
2023-06-19T12:03:11.219Z,31.90
2023-06-19T12:05:38.540Z,32.20
2023-06-19T12:10:33.995Z,33.40
2023-06-19T12:13:00.821Z,34.00
2023-06-19T12:15:27.654Z,34.30
2023-06-19T12:17:54.477Z,34.50
2023-06-19T12:20:21.502Z,34.70
2023-06-19T12:22:48.435Z,34.60
2023-06-19T12:25:15.193Z,34.40
2023-06-19T12:27:42.414Z,34.00
2023-06-19T12:30:10.118Z,34.10
2023-06-19T12:32:36.956Z,34.40
2023-06-19T12:35:04.169Z,34.90
2023-06-19T12:37:30.991Z,35.20
2023-06-19T12:39:57.747Z,35.50
2023-06-19T12:42:24.545Z,35.60
2023-06-19T12:44:51.330Z,35.70
2023-06-19T12:47:19.269Z,35.70
2023-06-19T12:49:46.115Z,35.80
2023-06-19T12:52:12.882Z,35.90
2023-06-19T12:54:43.142Z,35.90
2023-06-19T12:57:10.059Z,35.80
2023-06-19T12:59:36.906Z,35.60
2023-06-19T13:02:04.047Z,35.60
2023-06-19T13:04:30.968Z,35.60
2023-06-19T13:06:57.845Z,35.50
2023-06-19T13:09:25.323Z,35.50
2023-06-19T13:11:52.131Z,35.50
2023-06-19T13:14:18.909Z,35.60
2023-06-19T13:16:47.355Z,35.70
2023-06-19T13:19:15.450Z,35.80
2023-06-19T13:21:42.621Z,35.70
2023-06-19T13:24:09.630Z,35.70
2023-06-19T13:26:36.578Z,35.70
2023-06-19T13:29:03.666Z,35.60
2023-06-19T13:31:30.480Z,35.50
2023-06-19T13:33:57.344Z,35.70
2023-06-19T13:36:25.034Z,35.80
2023-06-19T13:38:52.937Z,35.90
2023-06-19T13:41:19.938Z,36.20
2023-06-19T13:43:46.981Z,36.40
2023-06-19T13:46:13.966Z,36.60
2023-06-19T13:48:40.763Z,36.60
2023-06-19T13:51:07.571Z,36.40
2023-06-19T13:53:34.398Z,36.20
2023-06-19T13:56:01.209Z,36.10
2023-06-19T13:58:27.967Z,35.90
2023-06-19T14:00:54.740Z,35.70
2023-06-19T14:03:21.806Z,35.80
2023-06-19T14:05:48.859Z,36.30
2023-06-19T14:08:15.615Z,36.90
2023-06-19T14:10:42.379Z,37.20
2023-06-19T14:13:12.288Z,37.10
2023-06-19T14:15:40.715Z,36.80
2023-06-19T14:18:07.685Z,36.70
2023-06-19T14:20:34.484Z,36.60
2023-06-19T14:23:01.524Z,36.60
2023-06-19T14:25:28.484Z,36.70
2023-06-19T14:27:55.325Z,36.90
2023-06-19T14:30:22.742Z,37.20
2023-06-19T14:32:49.840Z,37.60
2023-06-19T14:35:16.735Z,37.90
2023-06-19T14:37:43.584Z,38.00
2023-06-19T14:40:10.823Z,38.30
2023-06-19T14:42:37.591Z,38.50
2023-06-19T14:45:04.925Z,38.80
2023-06-19T14:47:31.981Z,38.80
2023-06-19T14:49:58.892Z,38.60
2023-06-19T14:52:25.672Z,38.30
2023-06-19T14:54:52.466Z,38.40
2023-06-19T14:57:19.224Z,38.60
2023-06-19T14:59:45.999Z,38.80
2023-06-19T15:02:12.822Z,38.80
2023-06-19T15:04:41.329Z,38.20
2023-06-19T15:07:08.405Z,37.40
2023-06-19T15:09:35.214Z,36.60
2023-06-19T15:12:02.090Z,35.90
2023-06-19T15:14:28.919Z,35.40
2023-06-19T15:16:55.705Z,35.00
2023-06-19T15:19:22.516Z,34.60
2023-06-19T15:21:49.267Z,34.30
2023-06-19T15:24:16.127Z,34.00
2023-06-19T15:26:42.984Z,33.60
2023-06-19T15:29:09.732Z,33.50
2023-06-19T15:31:37.291Z,33.30
2023-06-19T15:34:04.082Z,33.20
2023-06-19T15:36:30.850Z,33.10
2023-06-19T15:38:57.671Z,33.00
2023-06-19T15:41:24.813Z,32.70
2023-06-19T15:43:51.570Z,32.60
2023-06-19T15:46:18.446Z,32.60
2023-06-19T15:48:45.311Z,32.60
2023-06-19T15:51:12.087Z,32.50
2023-06-19T15:53:39.367Z,32.50
2023-06-19T15:56:06.747Z,32.40
2023-06-19T15:58:33.566Z,32.40
2023-06-19T16:01:00.377Z,32.30
2023-06-19T16:03:28.838Z,32.20
2023-06-19T16:08:25.450Z,32.00
2023-06-19T16:10:52.233Z,31.90
2023-06-19T16:13:19.354Z,31.80
2023-06-19T16:15:46.363Z,31.80
2023-06-19T16:18:13.136Z,31.80
2023-06-19T16:20:39.914Z,31.70
2023-06-19T16:23:06.692Z,31.70
2023-06-19T16:25:33.514Z,31.60
2023-06-19T16:28:02.248Z,31.60
2023-06-19T16:30:29.747Z,31.50
2023-06-19T16:32:56.626Z,31.50
2023-06-19T16:35:23.684Z,31.40
2023-06-19T16:37:53.779Z,31.40
2023-06-19T16:40:22.125Z,31.20
2023-06-19T16:42:49.143Z,31.00
2023-06-19T16:45:16.016Z,31.00
2023-06-19T16:47:42.901Z,31.00
2023-06-19T16:50:09.969Z,30.90
2023-06-19T16:52:36.799Z,30.90
2023-06-19T16:55:03.736Z,30.70
2023-06-19T16:57:30.999Z,30.60
2023-06-19T16:59:58.136Z,30.40
2023-06-19T17:02:25.035Z,30.40
2023-06-19T17:04:51.878Z,30.30
2023-06-19T17:07:18.837Z,30.20
2023-06-19T17:09:47.257Z,30.20
2023-06-19T17:12:14.795Z,30.10
2023-06-19T17:14:42.776Z,30.10
2023-06-19T17:17:09.868Z,30.10
2023-06-19T17:19:36.750Z,30.00
2023-06-19T17:22:03.882Z,30.00
2023-06-19T17:24:30.772Z,29.90
2023-06-19T17:26:58.633Z,29.80
2023-06-19T17:29:27.366Z,29.80
2023-06-19T17:31:55.262Z,29.70
2023-06-19T17:34:22.091Z,29.60
2023-06-19T17:36:48.920Z,29.50
2023-06-19T17:39:15.975Z,29.50
2023-06-19T17:41:43.569Z,29.40
2023-06-19T17:44:10.355Z,29.30
2023-06-19T17:46:39.320Z,29.30
2023-06-19T17:49:07.380Z,29.20
2023-06-19T17:51:34.531Z,29.20
2023-06-19T17:54:05.539Z,29.10
2023-06-19T17:56:32.742Z,29.00
2023-06-19T17:58:59.698Z,29.00
2023-06-19T18:01:26.488Z,28.90
2023-06-19T18:03:53.700Z,28.90
2023-06-19T18:06:20.994Z,28.80
2023-06-19T18:08:48.083Z,28.70
2023-06-19T18:11:14.943Z,28.60
2023-06-19T18:13:41.838Z,28.50
2023-06-19T18:16:12.529Z,28.50
2023-06-19T18:18:40.249Z,28.30
2023-06-19T18:21:07.111Z,28.30
2023-06-19T18:23:33.949Z,28.20
2023-06-19T18:26:01.303Z,28.10
2023-06-19T18:28:28.090Z,28.00
2023-06-19T18:30:54.846Z,27.80
2023-06-19T18:33:21.620Z,27.70
2023-06-19T18:35:48.356Z,27.70
2023-06-19T18:38:15.151Z,27.60
2023-06-19T18:40:42.781Z,27.60
2023-06-19T18:43:09.619Z,27.50
2023-06-19T18:45:36.494Z,27.40
2023-06-19T18:48:03.771Z,27.30
2023-06-19T18:50:30.757Z,27.20
2023-06-19T18:52:57.524Z,27.10
2023-06-19T18:55:24.310Z,27.10
2023-06-19T18:57:51.955Z,27.00
2023-06-19T19:00:19.477Z,26.90
2023-06-19T19:02:46.627Z,26.80
2023-06-19T19:05:13.557Z,26.80
2023-06-19T19:07:40.356Z,26.60
2023-06-19T19:10:07.714Z,26.60
2023-06-19T19:12:34.941Z,26.50
2023-06-19T19:15:01.683Z,26.40
2023-06-19T19:17:28.476Z,26.30
2023-06-19T19:19:55.269Z,26.20
2023-06-19T19:22:22.033Z,26.10
2023-06-19T19:24:49.188Z,26.00
2023-06-19T19:27:17.155Z,25.90
2023-06-19T19:29:44.011Z,25.80
2023-06-19T19:32:10.846Z,25.70
2023-06-19T19:34:37.628Z,25.60
2023-06-19T19:37:04.584Z,25.60
2023-06-19T19:39:34.346Z,25.50
2023-06-19T19:42:02.107Z,25.40
2023-06-19T19:44:28.856Z,25.30
2023-06-19T19:46:55.648Z,25.20
2023-06-19T19:49:22.831Z,25.20
2023-06-19T19:51:49.653Z,25.10
2023-06-19T19:54:16.480Z,24.90
2023-06-19T19:56:43.225Z,24.80
2023-06-19T19:59:10.304Z,24.60
2023-06-19T20:01:37.077Z,24.50
2023-06-19T20:04:04.179Z,24.40
2023-06-19T20:06:32.126Z,24.40
2023-06-19T20:08:58.919Z,24.40
2023-06-19T20:11:25.679Z,24.40
2023-06-19T20:13:52.442Z,24.40
2023-06-19T20:16:19.252Z,24.40
2023-06-19T20:18:46.731Z,24.40
2023-06-19T20:21:13.482Z,24.30
2023-06-19T20:23:40.436Z,24.40
2023-06-19T20:26:07.207Z,24.30
2023-06-19T20:28:34.035Z,24.30
2023-06-19T20:31:00.870Z,24.30
2023-06-19T20:33:27.685Z,24.20
2023-06-19T20:35:54.516Z,24.20
2023-06-19T20:38:21.384Z,24.20
2023-06-19T20:40:48.903Z,24.20
2023-06-19T20:43:15.727Z,24.10
2023-06-19T20:45:42.500Z,24.20
2023-06-19T20:48:09.290Z,24.10
2023-06-19T20:50:36.613Z,24.10
2023-06-19T20:53:03.456Z,24.10
2023-06-19T20:55:30.308Z,24.00
2023-06-19T20:57:57.094Z,24.00
2023-06-19T21:00:24.351Z,23.90
2023-06-19T21:02:51.577Z,23.80
2023-06-19T21:05:18.542Z,23.70
2023-06-19T21:07:45.962Z,23.60
2023-06-19T21:10:12.911Z,23.40
2023-06-19T21:12:39.727Z,23.30
2023-06-19T21:15:06.876Z,23.20
2023-06-19T21:17:33.680Z,23.10
2023-06-19T21:20:00.495Z,23.00
2023-06-19T21:22:27.251Z,23.00
2023-06-19T21:24:53.998Z,22.90
2023-06-19T21:27:20.758Z,22.90
2023-06-19T21:29:47.540Z,22.80
2023-06-19T21:32:14.324Z,22.80
2023-06-19T21:34:41.110Z,22.80
2023-06-19T21:37:07.976Z,22.80
2023-06-19T21:39:34.753Z,22.80
2023-06-19T21:42:01.540Z,22.80
2023-06-19T21:44:28.292Z,22.80
2023-06-19T21:46:55.125Z,22.90
2023-06-19T21:49:21.977Z,22.90
2023-06-19T21:51:48.867Z,22.90
2023-06-19T21:54:15.663Z,22.90
2023-06-19T21:56:42.437Z,22.90
2023-06-19T21:59:09.186Z,22.90
2023-06-19T22:01:36.703Z,22.80
2023-06-19T22:04:05.215Z,22.80
2023-06-19T22:06:34.081Z,22.80
2023-06-19T22:09:01.163Z,22.70
2023-06-19T22:11:28.390Z,22.60
2023-06-19T22:13:55.347Z,22.60
2023-06-19T22:16:22.151Z,22.70
2023-06-19T22:18:48.981Z,22.70
2023-06-19T22:21:15.745Z,22.70
2023-06-19T22:23:42.662Z,22.70
2023-06-19T22:26:09.880Z,22.70
2023-06-19T22:28:36.657Z,22.70
2023-06-19T22:31:03.510Z,22.50
2023-06-19T22:33:30.324Z,22.40
2023-06-19T22:35:57.069Z,22.40
2023-06-19T22:38:23.846Z,22.30
2023-06-19T22:40:51.034Z,22.30
2023-06-19T22:43:17.806Z,22.20
2023-06-19T22:45:44.599Z,22.20
2023-06-19T22:48:11.938Z,22.20
2023-06-19T22:50:38.678Z,22.20
2023-06-19T22:53:05.798Z,22.20
2023-06-19T22:55:32.563Z,22.10
2023-06-19T22:57:59.327Z,22.10
2023-06-19T23:00:26.144Z,22.10
2023-06-19T23:02:53.056Z,22.10
2023-06-19T23:05:19.909Z,22.10
2023-06-19T23:07:46.700Z,22.00
2023-06-19T23:10:13.610Z,22.00
2023-06-19T23:12:40.404Z,22.00
2023-06-19T23:15:08.389Z,22.00
2023-06-19T23:17:35.522Z,22.00
2023-06-19T23:20:02.512Z,21.90
2023-06-19T23:22:29.254Z,21.90
2023-06-19T23:24:56.058Z,21.90
2023-06-19T23:27:22.844Z,21.90
2023-06-19T23:29:52.220Z,21.80
2023-06-19T23:32:19.228Z,21.70
2023-06-19T23:34:46.080Z,21.60
2023-06-19T23:37:13.722Z,21.50
2023-06-19T23:39:40.510Z,21.40
2023-06-19T23:42:07.372Z,21.30
2023-06-19T23:44:34.218Z,21.20
2023-06-19T23:47:00.944Z,21.10
2023-06-19T23:49:27.719Z,21.10
2023-06-19T23:51:54.543Z,21.00
2023-06-19T23:54:22.153Z,21.00
2023-06-19T23:56:48.931Z,21.00
2023-06-19T23:59:15.754Z,21.00
